sensor_id;sensor_type;location;lat;lon;timestamp;pressure;altitude;pressure_sealevel;temperature;humidity
28626;BME280;18905;42.668;23.364;2023-07-24T00:00:19;95306.50;;;25.40;83.00
28626;BME280;18905;42.668;23.364;2023-07-24T00:02:45;95306.50;;;25.43;79.32
28626;BME280;18905;42.668;23.364;2023-07-24T00:05:10;95315.88;;;25.53;78.95
28626;BME280;18905;42.668;23.364;2023-07-24T00:07:36;95306.34;;;25.61;77.71
28626;BME280;18905;42.668;23.364;2023-07-24T00:10:02;95309.19;;;25.98;76.78
28626;BME280;18905;42.668;23.364;2023-07-24T00:12:27;95314.34;;;26.70;73.84
28626;BME280;18905;42.668;23.364;2023-07-24T00:14:52;95289.38;;;27.30;68.79
28626;BME280;18905;42.668;23.364;2023-07-24T00:17:18;95312.28;;;27.83;66.39
28626;BME280;18905;42.668;23.364;2023-07-24T00:19:43;95313.53;;;27.79;65.80
28626;BME280;18905;42.668;23.364;2023-07-24T00:22:09;95303.84;;;27.41;67.65
28626;BME280;18905;42.668;23.364;2023-07-24T00:24:34;95301.41;;;27.20;68.85
28626;BME280;18905;42.668;23.364;2023-07-24T00:26:59;95302.06;;;26.34;75.10
28626;BME280;18905;42.668;23.364;2023-07-24T00:29:25;95323.66;;;25.68;79.27
28626;BME280;18905;42.668;23.364;2023-07-24T00:31:50;95314.03;;;25.36;81.02
28626;BME280;18905;42.668;23.364;2023-07-24T00:34:15;95315.34;;;25.10;82.65
28626;BME280;18905;42.668;23.364;2023-07-24T00:36:41;95320.16;;;24.99;84.33
28626;BME280;18905;42.668;23.364;2023-07-24T00:39:06;95302.66;;;24.44;86.94
28626;BME280;18905;42.668;23.364;2023-07-24T00:41:32;95310.47;;;24.70;87.78
28626;BME280;18905;42.668;23.364;2023-07-24T00:43:57;95306.16;;;24.52;89.18
28626;BME280;18905;42.668;23.364;2023-07-24T00:46:29;95282.66;;;24.16;91.08
28626;BME280;18905;42.668;23.364;2023-07-24T00:49:02;95315.22;;;24.66;90.30
28626;BME280;18905;42.668;23.364;2023-07-24T00:51:28;95304.78;;;24.95;89.67
28626;BME280;18905;42.668;23.364;2023-07-24T00:53:57;95312.31;;;25.56;86.43
28626;BME280;18905;42.668;23.364;2023-07-24T00:56:25;95304.91;;;25.86;86.86
28626;BME280;18905;42.668;23.364;2023-07-24T00:58:52;95307.78;;;26.53;82.77
28626;BME280;18905;42.668;23.364;2023-07-24T01:01:20;95301.22;;;26.74;81.06
28626;BME280;18905;42.668;23.364;2023-07-24T01:03:46;95289.13;;;26.61;81.40
28626;BME280;18905;42.668;23.364;2023-07-24T01:06:11;95288.59;;;25.99;85.75
28626;BME280;18905;42.668;23.364;2023-07-24T01:08:37;95303.72;;;25.40;91.93
28626;BME280;18905;42.668;23.364;2023-07-24T01:11:15;95280.00;;;25.46;92.33
28626;BME280;18905;42.668;23.364;2023-07-24T01:13:46;95281.22;;;25.82;89.11
28626;BME280;18905;42.668;23.364;2023-07-24T01:16:18;95287.84;;;26.32;86.98
28626;BME280;18905;42.668;23.364;2023-07-24T01:18:44;95300.72;;;26.82;83.34
28626;BME280;18905;42.668;23.364;2023-07-24T01:21:11;95302.13;;;26.94;82.67
28626;BME280;18905;42.668;23.364;2023-07-24T01:24:04;95294.69;;;26.87;82.61
28626;BME280;18905;42.668;23.364;2023-07-24T01:26:37;95292.91;;;27.30;79.86
28626;BME280;18905;42.668;23.364;2023-07-24T01:29:02;95278.75;;;26.95;79.17
28626;BME280;18905;42.668;23.364;2023-07-24T01:31:27;95269.97;;;26.40;82.47
28626;BME280;18905;42.668;23.364;2023-07-24T01:33:53;95287.69;;;25.68;89.04
28626;BME280;18905;42.668;23.364;2023-07-24T01:36:18;95274.72;;;25.11;94.59
28626;BME280;18905;42.668;23.364;2023-07-24T01:38:47;95279.66;;;24.79;97.09
28626;BME280;18905;42.668;23.364;2023-07-24T01:41:13;95272.38;;;24.27;100.00
28626;BME280;18905;42.668;23.364;2023-07-24T01:43:39;95280.31;;;24.11;100.00
28626;BME280;18905;42.668;23.364;2023-07-24T01:46:04;95275.63;;;23.94;100.00
28626;BME280;18905;42.668;23.364;2023-07-24T01:48:29;95307.88;;;24.11;100.00
28626;BME280;18905;42.668;23.364;2023-07-24T01:50:55;95318.31;;;24.79;100.00
28626;BME280;18905;42.668;23.364;2023-07-24T01:53:20;95310.94;;;25.27;93.55
28626;BME280;18905;42.668;23.364;2023-07-24T01:55:46;95309.84;;;26.09;86.53
28626;BME280;18905;42.668;23.364;2023-07-24T01:58:11;95306.19;;;25.27;90.40
28626;BME280;18905;42.668;23.364;2023-07-24T02:00:36;95297.75;;;24.83;92.26
28626;BME280;18905;42.668;23.364;2023-07-24T02:03:02;95296.50;;;24.95;93.67
28626;BME280;18905;42.668;23.364;2023-07-24T02:05:27;95297.75;;;25.96;82.88
28626;BME280;18905;42.668;23.364;2023-07-24T02:07:52;95299.81;;;26.25;77.45
28626;BME280;18905;42.668;23.364;2023-07-24T02:10:18;95287.50;;;25.93;78.54
28626;BME280;18905;42.668;23.364;2023-07-24T02:12:43;95303.50;;;25.68;80.36
28626;BME280;18905;42.668;23.364;2023-07-24T02:15:09;95277.34;;;25.76;79.87
28626;BME280;18905;42.668;23.364;2023-07-24T02:17:34;95292.50;;;26.42;74.59
28626;BME280;18905;42.668;23.364;2023-07-24T02:20:00;95290.38;;;26.86;71.74
28626;BME280;18905;42.668;23.364;2023-07-24T02:22:25;95305.84;;;26.84;73.06
28626;BME280;18905;42.668;23.364;2023-07-24T02:24:51;95293.25;;;26.42;75.40
28626;BME280;18905;42.668;23.364;2023-07-24T02:27:30;95293.50;;;27.18;71.94
28626;BME280;18905;42.668;23.364;2023-07-24T02:29:57;95294.75;;;26.84;72.15
28626;BME280;18905;42.668;23.364;2023-07-24T02:32:22;95287.78;;;25.61;79.61
28626;BME280;18905;42.668;23.364;2023-07-24T02:34:51;95282.44;;;25.33;82.54
28626;BME280;18905;42.668;23.364;2023-07-24T02:37:17;95279.09;;;26.03;79.42
28626;BME280;18905;42.668;23.364;2023-07-24T02:39:42;95269.50;;;26.11;78.70
28626;BME280;18905;42.668;23.364;2023-07-24T02:42:08;95286.56;;;25.62;79.67
28626;BME280;18905;42.668;23.364;2023-07-24T02:44:34;95287.53;;;25.42;81.82
28626;BME280;18905;42.668;23.364;2023-07-24T02:47:01;95283.09;;;25.51;82.39
28626;BME280;18905;42.668;23.364;2023-07-24T02:49:26;95291.38;;;25.55;82.37
28626;BME280;18905;42.668;23.364;2023-07-24T02:51:51;95280.34;;;25.51;81.36
28626;BME280;18905;42.668;23.364;2023-07-24T02:54:17;95293.53;;;25.30;82.83
28626;BME280;18905;42.668;23.364;2023-07-24T02:56:42;95300.06;;;24.95;85.58
28626;BME280;18905;42.668;23.364;2023-07-24T02:59:07;95280.34;;;25.51;81.73
28626;BME280;18905;42.668;23.364;2023-07-24T03:01:33;95294.13;;;26.36;73.47
28626;BME280;18905;42.668;23.364;2023-07-24T03:03:58;95279.38;;;26.46;68.48
28626;BME280;18905;42.668;23.364;2023-07-24T03:06:23;95273.84;;;26.46;70.27
28626;BME280;18905;42.668;23.364;2023-07-24T03:08:49;95265.16;;;26.77;64.59
28626;BME280;18905;42.668;23.364;2023-07-24T03:11:14;95283.63;;;26.87;64.74
28626;BME280;18905;42.668;23.364;2023-07-24T03:13:40;95277.00;;;27.08;63.39
28626;BME280;18905;42.668;23.364;2023-07-24T03:16:06;95284.56;;;27.34;62.32
28626;BME280;18905;42.668;23.364;2023-07-24T03:18:31;95276.84;;;27.45;62.29
28626;BME280;18905;42.668;23.364;2023-07-24T03:20:58;95283.63;;;27.14;64.80
28626;BME280;18905;42.668;23.364;2023-07-24T03:23:24;95294.88;;;27.03;67.18
28626;BME280;18905;42.668;23.364;2023-07-24T03:25:49;95281.72;;;26.47;69.16
28626;BME280;18905;42.668;23.364;2023-07-24T03:28:14;95273.97;;;25.58;75.14
28626;BME280;18905;42.668;23.364;2023-07-24T03:30:40;95290.31;;;25.42;77.70
28626;BME280;18905;42.668;23.364;2023-07-24T03:33:05;95286.19;;;25.06;81.34
28626;BME280;18905;42.668;23.364;2023-07-24T03:35:31;95277.63;;;24.86;82.80
28626;BME280;18905;42.668;23.364;2023-07-24T03:37:57;95283.38;;;25.13;82.41
28626;BME280;18905;42.668;23.364;2023-07-24T03:40:22;95295.78;;;25.45;76.86
28626;BME280;18905;42.668;23.364;2023-07-24T03:42:48;95280.19;;;25.69;73.21
28626;BME280;18905;42.668;23.364;2023-07-24T03:45:13;95273.78;;;25.79;71.97
28626;BME280;18905;42.668;23.364;2023-07-24T03:47:38;95286.31;;;25.90;71.83
28626;BME280;18905;42.668;23.364;2023-07-24T03:50:04;95287.84;;;26.32;70.48
28626;BME280;18905;42.668;23.364;2023-07-24T03:52:30;95299.22;;;26.74;67.85
28626;BME280;18905;42.668;23.364;2023-07-24T03:54:55;95293.13;;;26.56;68.86
28626;BME280;18905;42.668;23.364;2023-07-24T03:57:20;95287.84;;;26.32;69.81
28626;BME280;18905;42.668;23.364;2023-07-24T03:59:46;95302.13;;;26.64;69.03
28626;BME280;18905;42.668;23.364;2023-07-24T04:02:11;95291.34;;;26.36;71.60
28626;BME280;18905;42.668;23.364;2023-07-24T04:04:37;95308.97;;;26.19;54.24
28626;BME280;18905;42.668;23.364;2023-07-24T04:07:03;95289.53;;;25.85;61.76
28626;BME280;18905;42.668;23.364;2023-07-24T04:09:31;95300.41;;;25.59;63.55
28626;BME280;18905;42.668;23.364;2023-07-24T04:11:57;95306.56;;;25.33;66.23
28626;BME280;18905;42.668;23.364;2023-07-24T04:14:22;95292.38;;;25.27;69.16
28626;BME280;18905;42.668;23.364;2023-07-24T04:16:48;95322.38;;;25.29;70.93
28626;BME280;18905;42.668;23.364;2023-07-24T04:19:13;95325.06;;;25.39;71.45
28626;BME280;18905;42.668;23.364;2023-07-24T04:21:38;95322.00;;;25.20;74.40
28626;BME280;18905;42.668;23.364;2023-07-24T04:24:04;95310.59;;;25.14;75.60
28626;BME280;18905;42.668;23.364;2023-07-24T04:26:29;95318.59;;;24.98;77.76
28626;BME280;18905;42.668;23.364;2023-07-24T04:28:55;95295.50;;;24.68;80.28
28626;BME280;18905;42.668;23.364;2023-07-24T04:31:20;95324.63;;;24.79;81.12
28626;BME280;18905;42.668;23.364;2023-07-24T04:33:45;95304.06;;;24.84;81.27
28626;BME280;18905;42.668;23.364;2023-07-24T04:36:11;95305.13;;;25.07;79.74
28626;BME280;18905;42.668;23.364;2023-07-24T04:38:36;95310.78;;;25.48;80.24
28626;BME280;18905;42.668;23.364;2023-07-24T04:41:02;95321.44;;;25.49;80.89
28626;BME280;18905;42.668;23.364;2023-07-24T04:43:28;95313.88;;;25.57;80.28
28626;BME280;18905;42.668;23.364;2023-07-24T04:45:54;95292.44;;;25.68;78.75
28626;BME280;18905;42.668;23.364;2023-07-24T04:48:19;95299.63;;;26.06;76.87
28626;BME280;18905;42.668;23.364;2023-07-24T04:50:45;95314.19;;;26.47;74.56
28626;BME280;18905;42.668;23.364;2023-07-24T04:53:10;95304.47;;;25.91;78.36
28626;BME280;18905;42.668;23.364;2023-07-24T04:55:35;95316.09;;;25.21;84.79
28626;BME280;18905;42.668;23.364;2023-07-24T04:58:01;95325.13;;;25.29;85.92
28626;BME280;18905;42.668;23.364;2023-07-24T05:00:26;95317.41;;;24.99;89.55
28626;BME280;18905;42.668;23.364;2023-07-24T05:02:52;95321.81;;;25.51;87.64
28626;BME280;18905;42.668;23.364;2023-07-24T05:05:17;95302.03;;;25.53;88.07
28626;BME280;18905;42.668;23.364;2023-07-24T05:07:43;95310.50;;;25.79;84.35
28626;BME280;18905;42.668;23.364;2023-07-24T05:10:08;95319.88;;;25.45;83.96
28626;BME280;18905;42.668;23.364;2023-07-24T05:12:34;95321.91;;;25.41;90.05
28626;BME280;18905;42.668;23.364;2023-07-24T05:14:59;95313.16;;;26.34;82.86
28626;BME280;18905;42.668;23.364;2023-07-24T05:17:24;95309.50;;;27.04;76.61
28626;BME280;18905;42.668;23.364;2023-07-24T05:19:50;95315.31;;;27.43;74.01
28626;BME280;18905;42.668;23.364;2023-07-24T05:22:15;95315.91;;;27.01;76.05
28626;BME280;18905;42.668;23.364;2023-07-24T05:24:40;95305.22;;;26.36;81.11
28626;BME280;18905;42.668;23.364;2023-07-24T05:27:06;95312.25;;;26.44;82.60
28626;BME280;18905;42.668;23.364;2023-07-24T05:29:32;95300.13;;;26.31;83.10
28626;BME280;18905;42.668;23.364;2023-07-24T05:31:57;95303.84;;;26.14;84.63
28626;BME280;18905;42.668;23.364;2023-07-24T05:34:24;95310.91;;;26.59;83.22
28626;BME280;18905;42.668;23.364;2023-07-24T05:36:49;95319.44;;;26.38;84.56
28626;BME280;18905;42.668;23.364;2023-07-24T05:39:15;95320.34;;;26.28;86.78
28626;BME280;18905;42.668;23.364;2023-07-24T05:41:40;95316.59;;;26.78;84.50
28626;BME280;18905;42.668;23.364;2023-07-24T05:44:06;95311.06;;;27.35;78.89
28626;BME280;18905;42.668;23.364;2023-07-24T05:46:31;95309.38;;;27.14;78.33
28626;BME280;18905;42.668;23.364;2023-07-24T05:48:56;95308.22;;;27.12;77.92
28626;BME280;18905;42.668;23.364;2023-07-24T05:51:22;95295.66;;;27.04;77.95
28626;BME280;18905;42.668;23.364;2023-07-24T05:53:47;95295.75;;;27.27;78.04
28626;BME280;18905;42.668;23.364;2023-07-24T05:56:13;95286.88;;;28.08;72.08
28626;BME280;18905;42.668;23.364;2023-07-24T05:58:39;95287.94;;;28.57;67.91
28626;BME280;18905;42.668;23.364;2023-07-24T06:01:04;95291.44;;;28.18;68.39
28626;BME280;18905;42.668;23.364;2023-07-24T06:03:29;95280.84;;;27.90;68.79
28626;BME280;18905;42.668;23.364;2023-07-24T06:05:55;95274.50;;;27.89;69.75
28626;BME280;18905;42.668;23.364;2023-07-24T06:08:21;95268.31;;;27.82;70.85
28626;BME280;18905;42.668;23.364;2023-07-24T06:10:48;95278.88;;;28.10;70.98
28626;BME280;18905;42.668;23.364;2023-07-24T06:13:17;95270.09;;;27.69;73.12
28626;BME280;18905;42.668;23.364;2023-07-24T06:15:43;95280.59;;;27.58;73.97
28626;BME280;18905;42.668;23.364;2023-07-24T06:18:09;95282.53;;;27.61;74.28
28626;BME280;18905;42.668;23.364;2023-07-24T06:20:34;95286.13;;;27.58;74.52
28626;BME280;18905;42.668;23.364;2023-07-24T06:23:00;95270.56;;;26.88;77.96
28626;BME280;18905;42.668;23.364;2023-07-24T06:25:25;95269.31;;;27.19;76.16
28626;BME280;18905;42.668;23.364;2023-07-24T06:27:51;95276.03;;;27.18;77.49
28626;BME280;18905;42.668;23.364;2023-07-24T06:30:16;95281.03;;;27.30;76.71
28626;BME280;18905;42.668;23.364;2023-07-24T06:32:42;95278.88;;;27.14;77.55
28626;BME280;18905;42.668;23.364;2023-07-24T06:35:07;95272.34;;;27.28;75.65
28626;BME280;18905;42.668;23.364;2023-07-24T06:37:33;95282.06;;;27.89;73.59
28626;BME280;18905;42.668;23.364;2023-07-24T06:39:58;95274.69;;;27.79;72.63
28626;BME280;18905;42.668;23.364;2023-07-24T06:42:23;95278.47;;;27.42;74.08
28626;BME280;18905;42.668;23.364;2023-07-24T06:44:49;95262.75;;;27.82;72.28
28626;BME280;18905;42.668;23.364;2023-07-24T06:47:14;95261.84;;;27.88;70.82
28626;BME280;18905;42.668;23.364;2023-07-24T06:49:40;95273.72;;;27.66;73.31
28626;BME280;18905;42.668;23.364;2023-07-24T06:52:05;95264.06;;;27.51;72.96
28626;BME280;18905;42.668;23.364;2023-07-24T06:54:30;95274.56;;;26.50;77.60
28626;BME280;18905;42.668;23.364;2023-07-24T06:56:56;95285.31;;;27.61;74.16
28626;BME280;18905;42.668;23.364;2023-07-24T06:59:23;95271.09;;;27.82;72.21
28626;BME280;18905;42.668;23.364;2023-07-24T07:01:48;95276.13;;;28.10;69.60
28626;BME280;18905;42.668;23.364;2023-07-24T07:04:13;95292.44;;;28.08;69.94
28626;BME280;18905;42.668;23.364;2023-07-24T07:06:39;95273.19;;;28.60;66.78
28626;BME280;18905;42.668;23.364;2023-07-24T07:09:04;95289.19;;;29.27;63.94
28626;BME280;18905;42.668;23.364;2023-07-24T07:11:30;95288.13;;;29.88;60.79
28626;BME280;18905;42.668;23.364;2023-07-24T07:13:55;95285.28;;;29.60;61.25
28626;BME280;18905;42.668;23.364;2023-07-24T07:16:21;95271.38;;;29.08;62.73
28626;BME280;18905;42.668;23.364;2023-07-24T07:18:46;95259.16;;;28.67;63.93
28626;BME280;18905;42.668;23.364;2023-07-24T07:21:12;95281.78;;;29.04;63.92
28626;BME280;18905;42.668;23.364;2023-07-24T07:23:37;95266.19;;;29.42;61.86
28626;BME280;18905;42.668;23.364;2023-07-24T07:26:02;95282.03;;;29.61;61.68
28626;BME280;18905;42.668;23.364;2023-07-24T07:28:28;95268.59;;;29.60;60.86
28626;BME280;18905;42.668;23.364;2023-07-24T07:30:53;95275.84;;;29.38;61.43
28626;BME280;18905;42.668;23.364;2023-07-24T07:33:19;95273.66;;;29.93;61.53
28626;BME280;18905;42.668;23.364;2023-07-24T07:35:47;95263.91;;;30.01;60.67
28626;BME280;18905;42.668;23.364;2023-07-24T07:38:12;95258.16;;;30.24;57.91
28626;BME280;18905;42.668;23.364;2023-07-24T07:40:38;95265.47;;;29.22;62.61
28626;BME280;18905;42.668;23.364;2023-07-24T07:43:04;95258.13;;;29.80;60.55
28626;BME280;18905;42.668;23.364;2023-07-24T07:45:29;95252.56;;;29.80;62.42
28626;BME280;18905;42.668;23.364;2023-07-24T07:47:55;95257.06;;;30.06;59.27
28626;BME280;18905;42.668;23.364;2023-07-24T07:50:20;95267.69;;;30.68;59.56
28626;BME280;18905;42.668;23.364;2023-07-24T07:52:49;95265.13;;;31.64;53.02
28626;BME280;18905;42.668;23.364;2023-07-24T07:55:14;95263.53;;;32.22;50.02
28626;BME280;18905;42.668;23.364;2023-07-24T07:57:40;95273.91;;;32.68;47.97
28626;BME280;18905;42.668;23.364;2023-07-24T08:00:06;95261.84;;;32.59;47.84
28626;BME280;18905;42.668;23.364;2023-07-24T08:02:32;95265.47;;;32.47;47.92
28626;BME280;18905;42.668;23.364;2023-07-24T08:04:58;95265.19;;;33.18;45.62
28626;BME280;18905;42.668;23.364;2023-07-24T08:07:24;95259.13;;;33.81;44.12
28626;BME280;18905;42.668;23.364;2023-07-24T08:09:49;95232.75;;;34.81;42.23
28626;BME280;18905;42.668;23.364;2023-07-24T08:12:15;95260.47;;;36.36;38.79
28626;BME280;18905;42.668;23.364;2023-07-24T08:14:40;95261.19;;;35.99;39.34
28626;BME280;18905;42.668;23.364;2023-07-24T08:17:05;95261.84;;;35.94;39.11
28626;BME280;18905;42.668;23.364;2023-07-24T08:19:31;95251.59;;;34.89;40.61
28626;BME280;18905;42.668;23.364;2023-07-24T08:21:56;95255.69;;;36.28;38.33
28626;BME280;18905;42.668;23.364;2023-07-24T08:24:22;95246.97;;;35.19;39.62
28626;BME280;18905;42.668;23.364;2023-07-24T08:26:47;95230.13;;;33.75;41.42
28626;BME280;18905;42.668;23.364;2023-07-24T08:29:13;95245.22;;;33.77;41.81
28626;BME280;18905;42.668;23.364;2023-07-24T08:31:38;95234.66;;;33.33;43.17
28626;BME280;18905;42.668;23.364;2023-07-24T08:34:04;95228.09;;;32.75;43.71
28626;BME280;18905;42.668;23.364;2023-07-24T08:36:29;95235.72;;;32.53;44.09
28626;BME280;18905;42.668;23.364;2023-07-24T08:38:54;95220.19;;;31.96;45.58
28626;BME280;18905;42.668;23.364;2023-07-24T08:41:20;95225.75;;;32.52;45.32
28626;BME280;18905;42.668;23.364;2023-07-24T08:43:45;95227.47;;;32.71;44.99
28626;BME280;18905;42.668;23.364;2023-07-24T08:46:11;95212.53;;;33.65;43.49
28626;BME280;18905;42.668;23.364;2023-07-24T08:48:40;95226.63;;;33.44;42.96
28626;BME280;18905;42.668;23.364;2023-07-24T08:51:16;95218.78;;;32.78;43.85
28626;BME280;18905;42.668;23.364;2023-07-24T08:53:44;95202.03;;;33.87;42.45
28626;BME280;18905;42.668;23.364;2023-07-24T08:56:10;95219.19;;;34.52;41.02
28626;BME280;18905;42.668;23.364;2023-07-24T08:58:37;95211.09;;;34.54;39.96
28626;BME280;18905;42.668;23.364;2023-07-24T09:01:04;95216.53;;;34.13;40.46
28626;BME280;18905;42.668;23.364;2023-07-24T09:03:31;95215.78;;;34.30;39.84
28626;BME280;18905;42.668;23.364;2023-07-24T09:05:57;95207.19;;;34.61;39.24
28626;BME280;18905;42.668;23.364;2023-07-24T09:08:32;95212.19;;;34.30;39.46
28626;BME280;18905;42.668;23.364;2023-07-24T09:10:59;95187.78;;;33.15;40.55
28626;BME280;18905;42.668;23.364;2023-07-24T09:13:24;95210.44;;;33.87;40.34
28626;BME280;18905;42.668;23.364;2023-07-24T09:15:50;95207.66;;;34.32;39.28
28626;BME280;18905;42.668;23.364;2023-07-24T09:18:15;95206.00;;;35.12;38.63
28626;BME280;18905;42.668;23.364;2023-07-24T09:20:42;95194.06;;;35.36;37.95
28626;BME280;18905;42.668;23.364;2023-07-24T09:23:09;95188.94;;;34.92;37.94
28626;BME280;18905;42.668;23.364;2023-07-24T09:25:36;95202.19;;;34.74;38.71
28626;BME280;18905;42.668;23.364;2023-07-24T09:28:15;95192.84;;;34.68;37.98
28626;BME280;18905;42.668;23.364;2023-07-24T09:30:42;95183.81;;;35.89;37.01
28626;BME280;18905;42.668;23.364;2023-07-24T09:33:16;95168.00;;;36.15;35.70
28626;BME280;18905;42.668;23.364;2023-07-24T09:35:41;95175.75;;;35.82;35.72
28626;BME280;18905;42.668;23.364;2023-07-24T09:38:11;95178.81;;;34.86;37.29
28626;BME280;18905;42.668;23.364;2023-07-24T09:40:43;95161.25;;;34.49;37.98
28626;BME280;18905;42.668;23.364;2023-07-24T09:43:20;95167.22;;;35.67;36.71
28626;BME280;18905;42.668;23.364;2023-07-24T09:45:47;95165.72;;;36.04;36.49
28626;BME280;18905;42.668;23.364;2023-07-24T09:48:14;95155.69;;;36.12;35.90
28626;BME280;18905;42.668;23.364;2023-07-24T09:50:41;95153.97;;;36.67;36.77
28626;BME280;18905;42.668;23.364;2023-07-24T09:53:13;95152.91;;;36.94;34.91
28626;BME280;18905;42.668;23.364;2023-07-24T09:56:10;95143.91;;;37.73;33.39
28626;BME280;18905;42.668;23.364;2023-07-24T09:58:37;95134.81;;;36.57;34.73
28626;BME280;18905;42.668;23.364;2023-07-24T10:01:04;95137.47;;;36.08;35.66
28626;BME280;18905;42.668;23.364;2023-07-24T10:03:33;95129.06;;;36.22;35.01
28626;BME280;18905;42.668;23.364;2023-07-24T10:05:59;95133.59;;;36.20;35.48
28626;BME280;18905;42.668;23.364;2023-07-24T10:08:25;95126.69;;;36.30;35.48
28626;BME280;18905;42.668;23.364;2023-07-24T10:10:50;95118.91;;;38.01;33.72
28626;BME280;18905;42.668;23.364;2023-07-24T10:13:19;95115.25;;;38.15;33.74
28626;BME280;18905;42.668;23.364;2023-07-24T10:15:47;95120.13;;;37.40;33.69
28626;BME280;18905;42.668;23.364;2023-07-24T10:18:15;95122.06;;;37.68;33.38
28626;BME280;18905;42.668;23.364;2023-07-24T10:20:41;95106.72;;;36.86;33.95
28626;BME280;18905;42.668;23.364;2023-07-24T10:23:08;95095.31;;;36.08;34.23
28626;BME280;18905;42.668;23.364;2023-07-24T10:25:38;95100.28;;;36.27;35.00
28626;BME280;18905;42.668;23.364;2023-07-24T10:28:08;95081.41;;;35.90;35.39
28626;BME280;18905;42.668;23.364;2023-07-24T10:30:36;95095.81;;;35.59;35.78
28626;BME280;18905;42.668;23.364;2023-07-24T10:35:44;95095.63;;;36.97;35.08
28626;BME280;18905;42.668;23.364;2023-07-24T10:38:14;95077.31;;;35.53;35.82
28626;BME280;18905;42.668;23.364;2023-07-24T10:40:41;95087.78;;;36.57;34.65
28626;BME280;18905;42.668;23.364;2023-07-24T10:43:08;95087.69;;;36.23;34.76
28626;BME280;18905;42.668;23.364;2023-07-24T10:45:40;95087.03;;;36.71;34.06
28626;BME280;18905;42.668;23.364;2023-07-24T10:48:06;95095.41;;;37.00;34.48
28626;BME280;18905;42.668;23.364;2023-07-24T10:50:41;95086.22;;;37.14;33.35
28626;BME280;18905;42.668;23.364;2023-07-24T10:53:09;95093.06;;;37.48;33.81
28626;BME280;18905;42.668;23.364;2023-07-24T10:55:34;95074.28;;;37.99;32.80
28626;BME280;18905;42.668;23.364;2023-07-24T10:58:00;95089.28;;;37.51;33.61
28626;BME280;18905;42.668;23.364;2023-07-24T11:00:26;95074.16;;;37.68;33.55
28626;BME280;18905;42.668;23.364;2023-07-24T11:02:53;95078.75;;;37.31;34.42
28626;BME280;18905;42.668;23.364;2023-07-24T11:05:20;95054.88;;;37.61;34.17
28626;BME280;18905;42.668;23.364;2023-07-24T11:07:46;95062.41;;;39.23;31.75
28626;BME280;18905;42.668;23.364;2023-07-24T11:10:19;95063.66;;;39.22;31.90
28626;BME280;18905;42.668;23.364;2023-07-24T11:12:45;95046.78;;;38.40;32.84
28626;BME280;18905;42.668;23.364;2023-07-24T11:15:12;95052.38;;;37.89;34.08
28626;BME280;18905;42.668;23.364;2023-07-24T11:17:39;95048.13;;;38.19;32.22
28626;BME280;18905;42.668;23.364;2023-07-24T11:20:10;95049.31;;;39.25;30.05
28626;BME280;18905;42.668;23.364;2023-07-24T11:22:38;95034.16;;;37.84;31.49
28626;BME280;18905;42.668;23.364;2023-07-24T11:25:04;95027.50;;;38.89;30.74
28626;BME280;18905;42.668;23.364;2023-07-24T11:27:32;95033.22;;;38.13;30.68
28626;BME280;18905;42.668;23.364;2023-07-24T11:29:57;95044.03;;;36.85;33.24
28626;BME280;18905;42.668;23.364;2023-07-24T11:32:22;95042.41;;;37.13;32.95
28626;BME280;18905;42.668;23.364;2023-07-24T11:34:49;95044.03;;;36.85;32.16
28626;BME280;18905;42.668;23.364;2023-07-24T11:37:15;95038.44;;;37.40;31.91
28626;BME280;18905;42.668;23.364;2023-07-24T11:39:41;95031.50;;;38.77;30.73
28626;BME280;18905;42.668;23.364;2023-07-24T11:42:07;95020.41;;;36.34;33.31
28626;BME280;18905;42.668;23.364;2023-07-24T11:44:32;95026.94;;;36.02;34.68
28626;BME280;18905;42.668;23.364;2023-07-24T11:49:28;95008.63;;;37.13;33.04
28626;BME280;18905;42.668;23.364;2023-07-24T11:52:05;95020.25;;;37.21;33.20
28626;BME280;18905;42.668;23.364;2023-07-24T11:54:33;95004.41;;;36.89;33.84
28626;BME280;18905;42.668;23.364;2023-07-24T11:56:59;95010.25;;;36.22;35.60
28626;BME280;18905;42.668;23.364;2023-07-24T11:59:25;94999.38;;;36.93;34.57
28626;BME280;18905;42.668;23.364;2023-07-24T12:01:51;95006.47;;;37.23;33.68
28626;BME280;18905;42.668;23.364;2023-07-24T12:04:16;95007.31;;;38.14;32.91
28626;BME280;18905;42.668;23.364;2023-07-24T12:06:42;94999.38;;;38.13;33.85
28626;BME280;18905;42.668;23.364;2023-07-24T12:09:08;95003.88;;;35.83;36.60
28626;BME280;18905;42.668;23.364;2023-07-24T12:11:39;94998.28;;;35.98;37.20
28626;BME280;18905;42.668;23.364;2023-07-24T12:14:05;95010.63;;;36.93;36.04
28626;BME280;18905;42.668;23.364;2023-07-24T12:16:30;94997.97;;;37.57;34.64
28626;BME280;18905;42.668;23.364;2023-07-24T12:18:59;94999.84;;;37.86;34.15
28626;BME280;18905;42.668;23.364;2023-07-24T12:21:24;95006.72;;;35.98;36.91
28626;BME280;18905;42.668;23.364;2023-07-24T12:23:49;94997.16;;;36.33;36.65
28626;BME280;18905;42.668;23.364;2023-07-24T12:26:15;94999.84;;;37.86;33.67
28626;BME280;18905;42.668;23.364;2023-07-24T12:28:40;95004.75;;;37.91;34.19
28626;BME280;18905;42.668;23.364;2023-07-24T12:31:06;95003.31;;;37.35;34.92
28626;BME280;18905;42.668;23.364;2023-07-24T12:33:31;94989.28;;;35.94;36.02
28626;BME280;18905;42.668;23.364;2023-07-24T12:35:57;94988.97;;;36.50;35.32
28626;BME280;18905;42.668;23.364;2023-07-24T12:38:22;94989.28;;;35.94;37.35
28626;BME280;18905;42.668;23.364;2023-07-24T12:40:48;94983.84;;;36.34;36.78
28626;BME280;18905;42.668;23.364;2023-07-24T12:43:14;94979.63;;;36.58;36.01
28626;BME280;18905;42.668;23.364;2023-07-24T12:45:40;94958.06;;;37.19;33.82
28626;BME280;18905;42.668;23.364;2023-07-24T12:48:05;94974.69;;;37.02;35.25
28626;BME280;18905;42.668;23.364;2023-07-24T12:50:31;94971.53;;;36.46;34.17